createdAt,value
2018-09-21T00:00:38.884Z,6.60
2018-09-21T00:03:08.181Z,7.30
2018-09-21T00:05:36.502Z,6.90
2018-09-21T00:08:04.975Z,6.20
2018-09-21T00:10:33.322Z,6.57
2018-09-21T00:13:01.627Z,6.50
2018-09-21T00:15:30.183Z,5.93
2018-09-21T00:17:58.855Z,6.00
2018-09-21T00:20:27.187Z,6.27
2018-09-21T00:22:55.500Z,5.87
2018-09-21T00:25:23.790Z,5.13
2018-09-21T00:27:52.083Z,6.37
2018-09-21T00:30:20.370Z,6.63
2018-09-21T00:32:48.661Z,6.30
2018-09-21T00:35:16.951Z,5.97
2018-09-21T00:37:45.242Z,6.50
2018-09-21T00:40:14.212Z,5.83
2018-09-21T00:42:42.515Z,5.30
2018-09-21T00:45:10.796Z,6.20
2018-09-21T00:47:39.079Z,7.07
2018-09-21T00:50:07.519Z,7.07
2018-09-21T00:52:35.792Z,6.67
2018-09-21T00:55:04.139Z,6.90
2018-09-21T00:57:32.422Z,6.10
2018-09-21T01:00:00.744Z,5.80
2018-09-21T01:02:29.040Z,5.57
2018-09-21T01:04:57.311Z,5.70
2018-09-21T01:07:25.606Z,6.97
2018-09-21T01:09:53.899Z,6.13
2018-09-21T01:12:22.178Z,6.47
2018-09-21T01:14:50.495Z,6.80
2018-09-21T01:17:18.794Z,6.87
2018-09-21T01:19:47.084Z,6.93
2018-09-21T01:22:15.384Z,7.07
2018-09-21T01:24:43.667Z,7.40
2018-09-21T01:27:16.255Z,6.63
2018-09-21T01:29:45.246Z,6.20
2018-09-21T01:32:13.843Z,5.73
2018-09-21T01:34:42.138Z,6.10
2018-09-21T01:37:10.435Z,6.63
2018-09-21T01:39:38.722Z,7.47
2018-09-21T01:42:07.044Z,8.23
2018-09-21T01:44:35.326Z,8.07
2018-09-21T01:47:03.615Z,7.60
2018-09-21T01:49:31.889Z,6.63
2018-09-21T01:52:00.192Z,7.77
2018-09-21T01:54:28.506Z,7.17
2018-09-21T01:56:56.801Z,7.57
2018-09-21T01:59:25.099Z,5.77
2018-09-21T02:01:53.381Z,6.47
2018-09-21T02:04:25.880Z,6.87
2018-09-21T02:06:54.169Z,6.67
2018-09-21T02:09:22.485Z,6.67
2018-09-21T02:11:50.782Z,7.33
2018-09-21T02:14:19.057Z,6.80
2018-09-21T02:16:47.363Z,6.43
2018-09-21T02:19:15.655Z,6.87
2018-09-21T02:21:43.948Z,7.37
2018-09-21T02:24:12.222Z,6.07
2018-09-21T02:26:40.517Z,11.07
2018-09-21T02:29:08.815Z,5.57
2018-09-21T02:31:37.114Z,5.90
2018-09-21T02:34:05.420Z,5.73
2018-09-21T02:36:33.715Z,6.47
2018-09-21T02:39:02.091Z,5.50
2018-09-21T02:41:30.472Z,6.10
2018-09-21T02:43:58.664Z,5.47
2018-09-21T02:46:26.945Z,6.13
2018-09-21T02:48:55.220Z,5.13
2018-09-21T02:51:23.565Z,5.23
2018-09-21T02:53:51.870Z,6.17
2018-09-21T02:56:20.804Z,6.70
2018-09-21T02:58:49.406Z,5.67
2018-09-21T03:01:17.969Z,6.13
2018-09-21T03:03:46.278Z,5.27
2018-09-21T03:06:14.571Z,5.07
2018-09-21T03:08:43.081Z,5.50
2018-09-21T03:11:11.477Z,5.63
2018-09-21T03:13:39.963Z,5.80
2018-09-21T03:16:08.234Z,6.00
2018-09-21T03:18:36.581Z,6.10
2018-09-21T03:21:04.876Z,5.47
2018-09-21T03:23:33.154Z,5.90
2018-09-21T03:26:01.436Z,7.13
2018-09-21T03:28:29.709Z,6.87
2018-09-21T03:30:57.985Z,7.13
2018-09-21T03:33:26.270Z,7.43
2018-09-21T03:35:54.553Z,8.03
2018-09-21T03:38:22.830Z,9.37
2018-09-21T03:40:51.122Z,10.87
2018-09-21T03:43:19.440Z,10.43
2018-09-21T03:45:47.713Z,9.73
2018-09-21T03:48:16.177Z,9.87
2018-09-21T03:50:44.550Z,9.70
2018-09-21T03:53:12.870Z,9.43
2018-09-21T03:55:41.149Z,9.23
2018-09-21T03:58:09.480Z,9.43
2018-09-21T04:00:37.765Z,8.60
2018-09-21T04:03:06.056Z,9.87
2018-09-21T04:05:34.362Z,9.93
2018-09-21T04:08:02.674Z,9.00
2018-09-21T04:10:30.952Z,10.37
2018-09-21T04:12:59.237Z,9.97
2018-09-21T04:15:27.621Z,9.60
2018-09-21T04:17:56.554Z,9.73
2018-09-21T04:20:24.831Z,10.07
2018-09-21T04:23:01.637Z,8.73
2018-09-21T04:25:30.486Z,9.20
2018-09-21T04:27:58.786Z,8.33
2018-09-21T04:30:27.860Z,6.50
2018-09-21T04:32:56.448Z,8.63
2018-09-21T04:35:24.728Z,7.20
2018-09-21T04:37:53.258Z,7.60
2018-09-21T04:40:21.607Z,8.40
2018-09-21T04:42:50.154Z,8.40
2018-09-21T04:45:18.469Z,8.93
2018-09-21T04:47:46.744Z,9.77
2018-09-21T04:50:15.028Z,8.20
2018-09-21T04:52:43.316Z,8.03
2018-09-21T04:55:11.602Z,8.83
2018-09-21T04:57:39.916Z,9.37
2018-09-21T05:00:09.225Z,9.07
2018-09-21T05:02:37.497Z,9.83
2018-09-21T05:05:05.982Z,8.70
2018-09-21T05:07:34.327Z,10.23
2018-09-21T05:10:08.787Z,10.33
2018-09-21T05:12:37.096Z,9.30
2018-09-21T05:15:05.880Z,9.43
2018-09-21T05:17:34.320Z,9.47
2018-09-21T05:20:02.866Z,9.47
2018-09-21T05:22:31.250Z,10.47
2018-09-21T05:24:59.529Z,10.70
2018-09-21T05:27:27.903Z,10.47
2018-09-21T05:29:56.201Z,10.60
2018-09-21T05:32:24.470Z,9.10
2018-09-21T05:34:52.779Z,8.10
2018-09-21T05:37:21.061Z,6.60
2018-09-21T05:39:49.371Z,7.90
2018-09-21T05:42:17.649Z,8.50
2018-09-21T05:44:45.970Z,7.63
2018-09-21T05:47:14.311Z,5.53
2018-09-21T05:49:42.552Z,6.77
2018-09-21T05:52:11.388Z,7.10
2018-09-21T05:54:39.661Z,7.63
2018-09-21T05:57:07.967Z,7.43
2018-09-21T05:59:36.276Z,7.23
2018-09-21T06:02:04.637Z,6.90
2018-09-21T06:04:32.858Z,6.47
2018-09-21T06:07:01.124Z,6.60
2018-09-21T06:09:29.393Z,6.03
2018-09-21T06:11:57.673Z,5.77
2018-09-21T06:14:25.962Z,5.77
2018-09-21T06:16:54.265Z,5.77
2018-09-21T06:19:22.663Z,5.20
2018-09-21T06:21:50.915Z,5.70
2018-09-21T06:24:19.226Z,5.80
2018-09-21T06:26:47.521Z,5.07
2018-09-21T06:29:15.797Z,5.13
2018-09-21T06:31:44.102Z,5.07
2018-09-21T06:34:12.386Z,4.97
2018-09-21T06:36:40.680Z,5.13
2018-09-21T06:39:10.575Z,5.03
2018-09-21T06:41:39.377Z,5.10
2018-09-21T06:44:08.181Z,4.33
2018-09-21T06:46:36.468Z,5.17
2018-09-21T06:49:04.757Z,4.73
2018-09-21T06:51:33.388Z,4.20
2018-09-21T06:54:01.837Z,4.47
2018-09-21T06:56:30.150Z,4.30
2018-09-21T06:58:58.442Z,4.37
2018-09-21T07:01:26.736Z,4.60
2018-09-21T07:03:55.001Z,4.10
2018-09-21T07:06:23.291Z,4.07
2018-09-21T07:08:51.567Z,4.23
2018-09-21T07:11:19.854Z,4.60
2018-09-21T07:13:48.129Z,3.83
2018-09-21T07:16:16.413Z,4.43
2018-09-21T07:18:44.693Z,4.40
2018-09-21T07:21:12.989Z,3.80
2018-09-21T07:23:41.654Z,3.93
2018-09-21T07:26:10.124Z,4.00
2018-09-21T07:28:38.415Z,4.40
2018-09-21T07:31:06.884Z,3.83
2018-09-21T07:33:35.133Z,3.93
2018-09-21T07:36:03.441Z,4.13
2018-09-21T07:38:31.737Z,4.37
2018-09-21T07:41:00.061Z,4.17
2018-09-21T07:43:28.362Z,4.37
2018-09-21T07:45:56.642Z,4.17
2018-09-21T07:48:24.926Z,4.23
2018-09-21T07:50:53.218Z,4.07
2018-09-21T07:53:21.539Z,3.43
2018-09-21T07:55:49.926Z,4.07
2018-09-21T07:58:18.448Z,4.10
2018-09-21T08:00:46.801Z,3.77
2018-09-21T08:03:15.107Z,3.60
2018-09-21T08:05:43.428Z,3.90
2018-09-21T08:08:11.727Z,3.90
2018-09-21T08:10:39.998Z,3.10
2018-09-21T08:13:08.304Z,3.77
2018-09-21T08:15:36.609Z,3.33
2018-09-21T08:18:04.904Z,3.27
2018-09-21T08:20:33.201Z,3.30
2018-09-21T08:23:01.527Z,3.63
2018-09-21T08:25:29.833Z,2.83
2018-09-21T08:27:58.117Z,4.07
2018-09-21T08:30:26.465Z,3.13
2018-09-21T08:32:54.806Z,2.83
2018-09-21T08:35:23.122Z,2.77
2018-09-21T08:37:51.444Z,3.27
2018-09-21T08:40:19.767Z,3.10
2018-09-21T08:42:48.104Z,3.20
2018-09-21T08:45:16.407Z,3.33
2018-09-21T08:47:44.692Z,3.47
2018-09-21T08:50:12.964Z,4.20
2018-09-21T08:52:41.259Z,3.00
2018-09-21T08:55:09.530Z,3.03
2018-09-21T08:57:37.869Z,2.73
2018-09-21T09:00:06.160Z,2.93
2018-09-21T09:02:34.499Z,2.93
2018-09-21T09:05:02.798Z,2.97
2018-09-21T09:07:31.098Z,2.50
2018-09-21T09:09:59.402Z,2.97
2018-09-21T09:12:27.680Z,2.90
2018-09-21T09:14:56.014Z,2.70
2018-09-21T09:17:24.322Z,2.53
2018-09-21T09:19:52.685Z,2.83
2018-09-21T09:22:20.954Z,2.93
2018-09-21T09:24:49.293Z,2.70
2018-09-21T09:27:17.553Z,3.50
2018-09-21T09:29:45.862Z,2.60
2018-09-21T09:32:14.125Z,3.17
2018-09-21T09:34:42.472Z,2.97
2018-09-21T09:37:10.750Z,3.13
2018-09-21T09:39:39.137Z,3.20
2018-09-21T09:42:07.403Z,3.23
2018-09-21T09:44:35.711Z,3.27
2018-09-21T09:47:04.000Z,3.13
2018-09-21T09:49:32.269Z,2.93
2018-09-21T09:52:00.706Z,3.20
2018-09-21T09:54:28.980Z,2.83
2018-09-21T09:56:57.368Z,2.63
2018-09-21T09:59:25.641Z,2.80
2018-09-21T10:01:53.913Z,2.80
2018-09-21T10:04:22.189Z,3.27
2018-09-21T10:06:50.600Z,3.40
2018-09-21T10:09:18.876Z,3.43
2018-09-21T10:11:47.169Z,3.30
2018-09-21T10:14:15.455Z,2.80
2018-09-21T10:16:43.732Z,3.10
2018-09-21T10:19:12.181Z,3.27
2018-09-21T10:21:40.493Z,2.90
2018-09-21T10:24:08.802Z,2.87
2018-09-21T10:26:37.080Z,2.60
2018-09-21T10:29:05.358Z,2.83
2018-09-21T10:31:33.628Z,2.83
2018-09-21T10:34:01.916Z,2.90
2018-09-21T10:36:30.355Z,2.80
2018-09-21T10:38:58.844Z,3.10
2018-09-21T10:41:27.072Z,3.13
2018-09-21T10:43:55.398Z,2.80
2018-09-21T10:46:23.681Z,2.80
2018-09-21T10:48:51.992Z,2.60
2018-09-21T10:51:20.261Z,3.00
2018-09-21T10:53:48.526Z,2.80
2018-09-21T10:56:17.075Z,2.77
2018-09-21T10:58:45.454Z,2.40
2018-09-21T11:01:13.655Z,2.63
2018-09-21T11:03:41.934Z,2.63
2018-09-21T11:06:10.239Z,2.80
2018-09-21T11:08:38.500Z,2.80
2018-09-21T11:11:06.810Z,2.63
2018-09-21T11:13:35.292Z,2.60
2018-09-21T11:16:05.978Z,2.87
2018-09-21T11:18:34.249Z,2.97
2018-09-21T11:21:02.583Z,2.80
2018-09-21T11:23:31.279Z,2.73
2018-09-21T11:25:59.558Z,2.60
2018-09-21T11:28:27.897Z,2.93
2018-09-21T11:30:56.190Z,2.93
2018-09-21T11:33:24.502Z,2.80
2018-09-21T11:35:52.953Z,3.03
2018-09-21T11:38:21.252Z,2.70
2018-09-21T11:40:49.581Z,2.53
2018-09-21T11:43:17.895Z,2.73
2018-09-21T11:45:46.264Z,2.60
2018-09-21T11:48:14.613Z,2.93
2018-09-21T11:50:42.935Z,2.70
2018-09-21T11:53:11.259Z,2.47
2018-09-21T11:55:39.550Z,2.93
2018-09-21T11:58:07.941Z,2.67
2018-09-21T12:00:36.334Z,3.03
2018-09-21T12:03:04.653Z,3.23
2018-09-21T12:05:32.945Z,3.47
2018-09-21T12:08:01.396Z,2.70
2018-09-21T12:10:29.679Z,3.00
2018-09-21T12:12:58.118Z,3.40
2018-09-21T12:15:26.506Z,3.07
2018-09-21T12:17:54.886Z,3.27
2018-09-21T12:20:23.303Z,3.07
2018-09-21T12:22:51.670Z,3.37
2018-09-21T12:25:19.965Z,3.30
2018-09-21T12:27:48.358Z,3.00
2018-09-21T12:30:16.831Z,3.00
2018-09-21T12:32:45.045Z,3.03
2018-09-21T12:35:13.382Z,3.30
2018-09-21T12:37:41.726Z,3.40
2018-09-21T12:40:10.107Z,2.80
2018-09-21T12:42:38.903Z,3.60
2018-09-21T12:45:07.886Z,3.00
2018-09-21T12:47:36.309Z,3.83
2018-09-21T12:50:04.959Z,3.23
2018-09-21T12:52:33.229Z,3.37
2018-09-21T12:55:01.580Z,3.13
2018-09-21T12:57:29.949Z,3.03
2018-09-21T12:59:58.215Z,3.47
2018-09-21T13:02:26.638Z,3.20
2018-09-21T13:04:54.939Z,3.20
2018-09-21T13:07:23.251Z,3.13
2018-09-21T13:09:51.578Z,3.00
2018-09-21T13:12:19.896Z,3.17
2018-09-21T13:14:48.235Z,3.07
2018-09-21T13:17:16.672Z,2.93
2018-09-21T13:19:45.085Z,2.93
2018-09-21T13:22:13.371Z,2.60
2018-09-21T13:24:41.713Z,2.83
2018-09-21T13:27:10.097Z,3.10
2018-09-21T13:29:38.543Z,2.93
2018-09-21T13:32:06.893Z,2.80
2018-09-21T13:34:35.173Z,3.00
2018-09-21T13:37:03.460Z,2.67
2018-09-21T13:39:31.752Z,3.00
2018-09-21T13:42:00.082Z,3.13
2018-09-21T13:44:28.381Z,3.10
2018-09-21T13:46:56.694Z,2.60
2018-09-21T13:49:25.034Z,3.07
2018-09-21T13:51:53.498Z,2.70
2018-09-21T13:54:21.733Z,2.67
2018-09-21T13:56:50.007Z,3.10
2018-09-21T13:59:18.356Z,2.50
2018-09-21T14:01:46.725Z,2.73
2018-09-21T14:04:15.082Z,2.90
2018-09-21T14:06:43.356Z,2.67
2018-09-21T14:09:11.630Z,2.40
2018-09-21T14:11:39.933Z,2.77
2018-09-21T14:14:08.222Z,2.20
2018-09-21T14:16:36.535Z,2.90
2018-09-21T14:19:04.821Z,2.30
2018-09-21T14:21:33.162Z,2.60
2018-09-21T14:24:01.381Z,2.90
2018-09-21T14:26:29.673Z,2.57
2018-09-21T14:28:58.019Z,2.87
2018-09-21T14:31:26.266Z,3.00
2018-09-21T14:33:54.640Z,2.50
2018-09-21T14:36:22.939Z,2.80
2018-09-21T14:38:51.222Z,2.60
2018-09-21T14:41:19.495Z,2.70
2018-09-21T14:43:47.799Z,2.40
2018-09-21T14:46:16.105Z,2.67
2018-09-21T14:48:44.397Z,2.80
2018-09-21T14:51:12.677Z,2.63
2018-09-21T14:53:40.965Z,2.80
2018-09-21T14:56:09.241Z,2.47
2018-09-21T14:58:37.546Z,2.93
2018-09-21T15:01:05.824Z,2.97
2018-09-21T15:06:14.897Z,3.17
2018-09-21T15:08:43.126Z,2.40
2018-09-21T15:11:11.414Z,2.70
2018-09-21T15:13:39.730Z,2.30
2018-09-21T15:16:07.902Z,2.70
2018-09-21T15:18:36.331Z,2.43
2018-09-21T15:21:04.569Z,2.60
2018-09-21T15:23:32.774Z,2.50
2018-09-21T15:26:00.994Z,2.70
2018-09-21T15:28:29.202Z,2.40
2018-09-21T15:30:57.405Z,2.50
2018-09-21T15:33:25.606Z,2.70
2018-09-21T15:35:53.802Z,2.60
2018-09-21T15:38:22.033Z,2.73
2018-09-21T15:40:50.240Z,2.70
2018-09-21T15:43:18.567Z,2.20
2018-09-21T15:45:46.658Z,2.90
2018-09-21T15:48:14.907Z,3.00
2018-09-21T15:50:43.250Z,2.70
2018-09-21T15:53:11.484Z,2.97
2018-09-21T15:55:39.673Z,2.60
2018-09-21T15:58:07.913Z,3.20
2018-09-21T16:00:36.340Z,3.00
2018-09-21T16:03:04.616Z,2.90
2018-09-21T16:05:32.818Z,2.87
2018-09-21T16:08:01.033Z,2.47
2018-09-21T16:10:29.246Z,2.90
2018-09-21T16:12:57.550Z,2.77
2018-09-21T16:15:25.770Z,2.63
2018-09-21T16:17:54.051Z,3.10
2018-09-21T16:20:22.386Z,2.73
2018-09-21T16:22:50.847Z,2.90
2018-09-21T16:25:19.083Z,2.90
2018-09-21T16:27:47.302Z,2.83
2018-09-21T16:30:15.523Z,2.97
2018-09-21T16:32:43.885Z,2.57
2018-09-21T16:35:12.441Z,2.73
2018-09-21T16:37:40.694Z,2.73
2018-09-21T16:40:08.923Z,3.00
2018-09-21T16:42:37.159Z,3.50
2018-09-21T16:45:06.144Z,2.97
2018-09-21T16:47:34.300Z,2.90
2018-09-21T16:50:02.515Z,3.00
2018-09-21T16:52:30.725Z,2.77
2018-09-21T16:54:59.033Z,3.10
2018-09-21T16:57:27.286Z,3.10
2018-09-21T16:59:56.610Z,3.03
2018-09-21T17:02:24.826Z,3.30
2018-09-21T17:04:53.243Z,3.20
2018-09-21T17:07:21.423Z,3.00
2018-09-21T17:09:50.032Z,3.50
2018-09-21T17:12:23.962Z,3.13
2018-09-21T17:14:52.217Z,3.03
2018-09-21T17:17:20.431Z,3.00
2018-09-21T17:19:48.655Z,3.10
2018-09-21T17:22:16.890Z,2.70
2018-09-21T17:24:45.114Z,3.60
2018-09-21T17:27:13.322Z,2.83
2018-09-21T17:29:43.322Z,3.10
2018-09-21T17:32:11.620Z,2.73
2018-09-21T17:34:57.137Z,3.07
2018-09-21T17:37:25.419Z,3.73
2018-09-21T17:39:53.723Z,3.53
2018-09-21T17:42:21.914Z,3.43
2018-09-21T17:44:50.156Z,3.20
2018-09-21T17:47:21.598Z,2.90
2018-09-21T17:49:49.818Z,2.97
2018-09-21T17:52:18.071Z,3.37
2018-09-21T17:54:46.290Z,2.80
2018-09-21T17:57:14.563Z,3.10
2018-09-21T17:59:42.814Z,2.97
2018-09-21T18:02:11.002Z,3.53
2018-09-21T18:04:39.242Z,3.47
2018-09-21T18:07:07.470Z,3.50
2018-09-21T18:09:35.699Z,3.50
2018-09-21T18:12:03.916Z,3.60
2018-09-21T18:14:32.163Z,3.10
2018-09-21T18:17:00.430Z,3.37
2018-09-21T18:19:28.720Z,3.13
2018-09-21T18:21:56.938Z,3.20
2018-09-21T18:24:25.339Z,3.30
2018-09-21T18:26:53.595Z,3.17
2018-09-21T18:29:22.030Z,3.33
2018-09-21T18:31:50.807Z,3.43
2018-09-21T18:34:19.015Z,3.10
2018-09-21T18:36:47.252Z,3.20
2018-09-21T18:39:15.462Z,2.90
2018-09-21T18:41:43.755Z,3.73
2018-09-21T18:44:12.066Z,3.00
2018-09-21T18:46:40.294Z,3.53
2018-09-21T18:49:21.345Z,3.03
2018-09-21T18:51:49.606Z,3.83
2018-09-21T18:54:17.843Z,3.03
2018-09-21T18:56:46.151Z,3.00
2018-09-21T18:59:14.889Z,3.27
2018-09-21T19:01:43.186Z,3.03
2018-09-21T19:04:11.470Z,2.70
2018-09-21T19:06:39.814Z,2.63
2018-09-21T19:09:09.474Z,2.00
2018-09-21T19:11:37.746Z,1.70
2018-09-21T19:14:06.334Z,2.03
2018-09-21T19:16:34.805Z,1.40
2018-09-21T19:19:03.203Z,1.67
2018-09-21T19:21:31.443Z,1.67
2018-09-21T19:23:59.747Z,1.30
2018-09-21T19:26:28.260Z,1.00
2018-09-21T19:28:56.538Z,0.70
2018-09-21T19:31:43.133Z,0.47
2018-09-21T19:34:11.346Z,0.87
2018-09-21T19:36:39.626Z,0.77
2018-09-21T19:39:09.879Z,0.67
2018-09-21T19:41:38.152Z,0.53
2018-09-21T19:44:06.549Z,0.70
2018-09-21T19:46:34.809Z,0.53
2018-09-21T19:49:03.088Z,0.70
2018-09-21T19:51:31.728Z,1.00
2018-09-21T19:54:04.007Z,0.67
2018-09-21T19:56:32.566Z,0.60
2018-09-21T19:59:00.802Z,0.77
2018-09-21T20:01:29.307Z,1.10
2018-09-21T20:03:57.823Z,0.63
2018-09-21T20:06:26.027Z,1.07
2018-09-21T20:08:54.237Z,0.83
2018-09-21T20:11:25.766Z,0.60
2018-09-21T20:13:54.010Z,0.90
2018-09-21T20:16:22.315Z,0.77
2018-09-21T20:18:50.519Z,0.90
2018-09-21T20:21:18.940Z,0.83
2018-09-21T20:23:47.195Z,0.60
2018-09-21T20:26:15.418Z,1.13
2018-09-21T20:28:43.650Z,0.97
2018-09-21T20:31:17.335Z,0.90
2018-09-21T20:33:45.519Z,0.87
2018-09-21T20:36:13.783Z,0.73
2018-09-21T20:38:42.007Z,1.40
2018-09-21T20:41:10.419Z,0.80
2018-09-21T20:43:38.623Z,1.20
2018-09-21T20:46:06.831Z,1.27
2018-09-21T20:48:35.083Z,0.80
2018-09-21T20:51:03.282Z,0.87
2018-09-21T20:53:31.507Z,1.00
2018-09-21T20:55:59.717Z,1.10
2018-09-21T20:58:28.074Z,0.93
2018-09-21T21:00:56.389Z,0.97
2018-09-21T21:03:24.594Z,0.67
2018-09-21T21:05:52.823Z,0.90
2018-09-21T21:08:21.046Z,0.83
2018-09-21T21:10:49.230Z,0.93
2018-09-21T21:13:17.482Z,1.30
2018-09-21T21:15:45.690Z,1.27
2018-09-21T21:18:13.878Z,1.47
2018-09-21T21:20:42.077Z,0.90
2018-09-21T21:23:10.298Z,1.17
2018-09-21T21:25:38.509Z,1.30
2018-09-21T21:28:07.242Z,1.00
2018-09-21T21:30:35.772Z,1.03
2018-09-21T21:33:04.186Z,1.10
2018-09-21T21:35:32.657Z,1.00
2018-09-21T21:38:01.170Z,1.50
2018-09-21T21:40:29.731Z,1.00
2018-09-21T21:42:57.938Z,1.10
2018-09-21T21:45:26.280Z,1.00
2018-09-21T21:47:54.530Z,1.30
2018-09-21T21:50:22.805Z,1.40
2018-09-21T21:52:51.005Z,1.20
2018-09-21T21:55:19.239Z,1.53
2018-09-21T21:57:47.455Z,1.40
2018-09-21T22:00:15.798Z,1.27
2018-09-21T22:02:44.258Z,1.17
2018-09-21T22:05:12.544Z,1.60
2018-09-21T22:07:40.775Z,1.60
2018-09-21T22:10:09.371Z,1.63
2018-09-21T22:12:43.045Z,1.50
2018-09-21T22:15:13.685Z,1.27
2018-09-21T22:17:41.927Z,1.47
2018-09-21T22:20:10.141Z,1.63
2018-09-21T22:22:38.358Z,1.27
2018-09-21T22:25:06.667Z,1.73
2018-09-21T22:27:34.882Z,1.23
2018-09-21T22:30:03.086Z,1.40
2018-09-21T22:32:31.335Z,1.53
2018-09-21T22:34:59.530Z,1.40
2018-09-21T22:37:28.194Z,1.60
2018-09-21T22:39:56.414Z,1.33
2018-09-21T22:42:24.743Z,1.60
2018-09-21T22:44:53.076Z,1.53
2018-09-21T22:47:21.246Z,1.80
2018-09-21T22:49:49.453Z,1.33
2018-09-21T22:52:17.687Z,1.67
2018-09-21T22:54:45.914Z,1.57
2018-09-21T22:57:14.133Z,1.60
2018-09-21T22:59:42.342Z,1.80
2018-09-21T23:02:10.585Z,1.77
2018-09-21T23:04:38.802Z,1.83
2018-09-21T23:07:07.049Z,1.50
2018-09-21T23:09:35.263Z,2.03
2018-09-21T23:12:03.470Z,1.60
2018-09-21T23:14:31.794Z,1.50
2018-09-21T23:16:59.998Z,2.20
2018-09-21T23:19:28.206Z,2.00
2018-09-21T23:21:56.404Z,2.00
2018-09-21T23:24:24.619Z,1.60
2018-09-21T23:26:52.827Z,2.10
2018-09-21T23:29:21.050Z,1.43
2018-09-21T23:31:49.312Z,1.40
2018-09-21T23:34:17.478Z,1.83
2018-09-21T23:36:45.735Z,1.90
2018-09-21T23:39:13.941Z,1.57
2018-09-21T23:41:42.196Z,1.47
2018-09-21T23:44:10.769Z,1.63
2018-09-21T23:46:39.094Z,1.50
2018-09-21T23:49:07.347Z,1.30
2018-09-21T23:51:35.554Z,1.53
2018-09-21T23:54:03.766Z,1.60
2018-09-21T23:56:31.979Z,1.80
2018-09-21T23:59:00.220Z,1.50
